Custer, SD

6:01 AM MDT on October 20, 2014 (GMT -0600)
RAWS CUSTER SD US | Change Station
CLOSE
Current Station
Personal Weather Station
Location: Custer, SD
Elevation: 5820 ft
Nearby Weather Stations

Elev 5820 ft 43.78 °N, 103.64 °W | Updated 37 minutes ago

Clear
Clear
48 °F
Feels Like 48 °F
N
3
Wind Variable Wind from NW
Gusts 4.0 mph

Today
High -- | Low -- °F
--% Chance of Precip.
Yesterday
High -- | Low -- °F
Precip. -- in
7:15 AM 6:02 PM
Waning Crescent, 11% visible
Pressure 30.05 in
Visibility 10.0 miles
Clouds Clear
Windchill 48 °F
Dew Point 34 °F
Humidity 58%
Rainfall 0.00 in
Snow Depth Not available.
UV 0 out of 12
Pollen 2.70 out of 12
Air Quality Not available.
Flu Activity Sporadic
METAR KCUT 201153Z AUTO 31004KT 10SM CLR 04/01 A3013 RMK AO2 SLP174 T00440006 10050 20028 57009

More Conditions Fewer Conditions

Pressure 30.05 in
Visibility 10.0 miles
Clouds Clear
Windchill 48 °F
Dew Point 34 °F
Humidity 58%
Rainfall 0.00 in
Snow Depth Not available.
UV 0 out of 12
Pollen 2.70 out of 12
Air Quality Not available.
Flu Activity Sporadic
METAR KCUT 201153Z AUTO 31004KT 10SM CLR 04/01 A3013 RMK AO2 SLP174 T00440006 10050 20028 57009

More Conditions Fewer Conditions

10-Day Weather Forecast

Almanac

Astronomy

Oct. 20, 2014 Rise Set
Actual Time 7:15 AM MDT 6:02 PM MDT
Civil Twilight 6:45 AM MDT 6:31 PM MDT
Nautical Twilight 6:12 AM MDT 7:05 PM MDT
Astronomical Twilight 5:39 AM MDT 7:38 PM MDT
Moon 3:59 AM MDT 4:31 PM MDT
Length of Visible Light 11h 46m
Length of Day
10h 47m
Waning Crescent, 11% of the Moon is Illuminated
Today
Waning Crescent
Oct 23
New
Oct 30
First Quarter
Nov 6
Full
Nov 14
Last Quarter

Today's Extremes

State Highs State Lows

Community

WunderPhotos

Upload Photos

1,763,345 photos uploaded!

Nearby

Snow Depth

Station Depth Elevation
Blind Park 0 in 6890 ft

Earthquake Activity

City Distance Mag. Time & Date
No recent earthquake activity has been reported nearby.
Minimum magnitude displayed is 2.5.

Coastal Water Temperatures

Place Temperature
No Stations Reporting

Nearby Weather Stations